createdAt,value
2023-04-04T00:01:10.801Z,91.58
2023-04-04T00:06:04.274Z,94.79
2023-04-04T00:10:57.713Z,95.16
2023-04-04T00:15:52.416Z,98.60
2023-04-04T00:20:45.861Z,97.09
2023-04-04T00:25:39.413Z,97.32
2023-04-04T00:30:33.312Z,94.64
2023-04-04T00:35:28.135Z,96.77
2023-04-04T00:40:21.541Z,95.56
2023-04-04T00:45:15.052Z,94.42
2023-04-04T00:50:10.313Z,97.16
2023-04-04T00:55:06.654Z,93.70
2023-04-04T01:00:04.262Z,95.41
2023-04-04T01:04:57.782Z,93.60
2023-04-04T01:09:52.165Z,96.99
2023-04-04T01:14:46.945Z,94.54
2023-04-04T01:19:53.008Z,95.48
2023-04-04T01:24:49.688Z,97.38
2023-04-04T01:29:44.518Z,96.06
2023-04-04T01:34:48.371Z,92.94
2023-04-04T01:39:50.114Z,95.12
2023-04-04T01:44:45.983Z,97.86
2023-04-04T01:49:39.340Z,93.34
2023-04-04T01:54:34.111Z,93.80
2023-04-04T01:59:27.532Z,94.75
2023-04-04T02:04:22.511Z,96.64
2023-04-04T02:09:16.006Z,93.74
2023-04-04T02:14:09.944Z,93.56
2023-04-04T02:19:03.943Z,94.17
2023-04-04T02:23:58.981Z,94.00
2023-04-04T02:28:52.549Z,94.87
2023-04-04T02:33:46.411Z,98.23
2023-04-04T02:38:39.730Z,99.77
2023-04-04T02:43:34.413Z,100.00
2023-04-04T02:48:27.769Z,100.00
2023-04-04T02:53:23.860Z,96.48
2023-04-04T02:58:17.498Z,98.22
2023-04-04T03:03:12.438Z,100.00
2023-04-04T03:08:06.271Z,100.00
2023-04-04T03:13:00.019Z,96.91
2023-04-04T03:17:54.062Z,100.00
2023-04-04T03:22:49.329Z,100.00
2023-04-04T03:27:42.663Z,100.00
2023-04-04T03:32:37.217Z,100.00
2023-04-04T03:37:31.492Z,100.00
2023-04-04T03:42:26.914Z,97.51
2023-04-04T03:47:20.500Z,100.00
2023-04-04T03:52:13.859Z,100.00
2023-04-04T03:57:07.479Z,100.00
2023-04-04T04:02:02.193Z,100.00
2023-04-04T04:06:55.848Z,100.00
2023-04-04T04:11:49.177Z,100.00
2023-04-04T04:16:42.599Z,100.00
2023-04-04T04:21:37.398Z,100.00
2023-04-04T04:26:30.819Z,100.00
2023-04-04T04:31:24.147Z,100.00
2023-04-04T04:36:17.469Z,100.00
2023-04-04T04:41:12.196Z,100.00
2023-04-04T04:46:05.532Z,100.00
2023-04-04T04:50:58.808Z,100.00
2023-04-04T04:55:52.497Z,100.00
2023-04-04T05:00:47.279Z,100.00
2023-04-04T05:05:40.932Z,100.00
2023-04-04T05:10:34.406Z,100.00
2023-04-04T05:15:29.362Z,100.00
2023-04-04T05:20:24.454Z,100.00
2023-04-04T05:25:17.866Z,100.00
2023-04-04T05:30:12.595Z,100.00
2023-04-04T05:40:22.635Z,100.00
2023-04-04T05:45:16.291Z,100.00
2023-04-04T05:50:12.984Z,100.00
2023-04-04T05:55:07.694Z,100.00
2023-04-04T06:00:02.699Z,100.00
2023-04-04T06:04:55.917Z,100.00
2023-04-04T06:09:49.373Z,100.00
2023-04-04T06:14:42.763Z,100.00
2023-04-04T06:19:37.744Z,100.00
2023-04-04T06:24:31.595Z,100.00
2023-04-04T06:29:26.282Z,100.00
2023-04-04T06:34:22.768Z,100.00
2023-04-04T06:39:17.633Z,100.00
2023-04-04T06:44:11.237Z,100.00
2023-04-04T06:49:04.662Z,98.47
2023-04-04T06:59:06.832Z,99.21
2023-04-04T07:04:00.808Z,99.66
2023-04-04T07:08:54.346Z,98.38
2023-04-04T07:13:47.736Z,96.91
2023-04-04T07:18:42.516Z,93.24
2023-04-04T07:23:36.346Z,89.32
2023-04-04T07:28:29.672Z,89.67
2023-04-04T07:33:22.987Z,89.68
2023-04-04T07:38:17.687Z,91.87
2023-04-04T07:43:11.134Z,91.59
2023-04-04T07:48:04.872Z,88.71
2023-04-04T07:52:58.807Z,86.23
2023-04-04T07:57:54.663Z,82.27
2023-04-04T08:02:48.416Z,82.33
2023-04-04T08:07:42.744Z,82.18
2023-04-04T08:12:36.251Z,81.14
2023-04-04T08:17:31.321Z,79.53
2023-04-04T08:22:24.680Z,77.41
2023-04-04T08:27:18.058Z,72.89
2023-04-04T08:32:11.469Z,72.51
2023-04-04T08:37:06.640Z,74.44
2023-04-04T08:42:06.028Z,72.98
2023-04-04T08:47:02.636Z,74.79
2023-04-04T08:52:00.919Z,71.21
2023-04-04T08:56:56.153Z,69.05
2023-04-04T09:01:51.774Z,66.21
2023-04-04T09:06:45.919Z,69.37
2023-04-04T09:11:41.800Z,65.52
2023-04-04T09:16:36.648Z,63.37
2023-04-04T09:21:34.255Z,65.93
2023-04-04T09:26:27.767Z,64.60
2023-04-04T09:31:21.422Z,62.76
2023-04-04T09:41:22.818Z,60.85
2023-04-04T09:46:16.260Z,64.66
2023-04-04T09:51:14.211Z,59.28
2023-04-04T10:01:16.452Z,59.35
2023-04-04T10:06:11.350Z,55.69
2023-04-04T10:11:12.051Z,59.08
2023-04-04T10:16:06.728Z,56.51
2023-04-04T10:21:14.538Z,59.43
2023-04-04T10:26:09.990Z,55.50
2023-04-04T10:31:11.049Z,57.68
2023-04-04T10:36:13.986Z,60.07
2023-04-04T10:41:09.232Z,56.46
2023-04-04T10:51:13.068Z,54.51
2023-04-04T10:56:08.094Z,56.75
2023-04-04T11:01:01.441Z,54.34
2023-04-04T11:06:01.774Z,52.92
2023-04-04T11:10:57.536Z,53.15
2023-04-04T11:15:57.776Z,50.71
2023-04-04T11:20:51.732Z,54.86
2023-04-04T11:25:53.634Z,52.29
2023-04-04T11:30:51.358Z,49.61
2023-04-04T11:35:51.413Z,53.55
2023-04-04T11:40:56.383Z,51.13
2023-04-04T11:45:51.265Z,50.97
2023-04-04T11:50:49.761Z,53.50
2023-04-04T11:55:47.549Z,51.02
2023-04-04T12:00:41.659Z,48.00
2023-04-04T12:05:36.661Z,46.02
2023-04-04T12:10:33.455Z,48.74
2023-04-04T12:15:29.909Z,47.63
2023-04-04T12:20:24.760Z,49.26
2023-04-04T12:25:22.554Z,50.25
2023-04-04T12:30:17.079Z,48.52
2023-04-04T12:35:13.413Z,52.47
2023-04-04T12:40:08.526Z,49.85
2023-04-04T12:45:05.375Z,49.00
2023-04-04T12:49:58.740Z,51.58
2023-04-04T12:55:06.811Z,53.59
2023-04-04T13:00:06.752Z,54.52
2023-04-04T13:05:00.514Z,54.18
2023-04-04T13:09:57.174Z,52.50
2023-04-04T13:15:03.293Z,51.82
2023-04-04T13:19:56.623Z,49.44
2023-04-04T13:29:56.907Z,50.23
2023-04-04T13:34:51.670Z,54.39
2023-04-04T13:39:45.003Z,55.13
2023-04-04T13:44:38.329Z,52.39
2023-04-04T13:49:31.704Z,54.23
2023-04-04T13:54:26.543Z,50.40
2023-04-04T14:04:23.848Z,50.06
2023-04-04T14:09:17.701Z,48.07
2023-04-04T14:14:12.442Z,54.11
2023-04-04T14:19:06.132Z,53.14
2023-04-04T14:23:59.437Z,49.15
2023-04-04T14:28:52.766Z,51.73
2023-04-04T14:33:47.482Z,49.78
2023-04-04T14:43:53.074Z,50.57
2023-04-04T14:48:48.960Z,52.50
2023-04-04T14:53:41.673Z,51.58
2023-04-04T14:58:35.753Z,50.56
2023-04-04T15:03:29.154Z,52.27
2023-04-04T15:08:23.998Z,47.83
2023-04-04T15:18:22.768Z,51.37
2023-04-04T15:23:16.330Z,50.82
2023-04-04T15:33:18.358Z,48.80
2023-04-04T15:38:11.752Z,48.99
2023-04-04T15:43:05.066Z,49.39
2023-04-04T15:47:58.450Z,48.84
2023-04-04T15:52:53.217Z,49.05
2023-04-04T15:57:47.046Z,49.43
2023-04-04T16:02:40.758Z,49.61
2023-04-04T16:07:34.514Z,47.91
2023-04-04T16:12:29.505Z,49.73
2023-04-04T16:22:24.861Z,50.51
2023-04-04T16:27:18.265Z,51.82
2023-04-04T16:32:13.101Z,49.77
2023-04-04T16:37:06.434Z,48.84
2023-04-04T16:42:00.542Z,50.32
2023-04-04T16:46:58.730Z,49.21
2023-04-04T16:51:53.684Z,51.27
2023-04-04T16:56:47.178Z,52.31
2023-04-04T17:01:49.098Z,54.16
2023-04-04T17:06:42.567Z,54.97
2023-04-04T17:11:38.653Z,53.13
2023-04-04T17:16:33.346Z,52.94
2023-04-04T17:21:26.910Z,53.26
2023-04-04T17:26:21.142Z,54.50
2023-04-04T17:31:17.020Z,55.35
2023-04-04T17:36:10.756Z,53.96
2023-04-04T17:41:17.031Z,56.17
2023-04-04T17:46:10.565Z,55.95
2023-04-04T17:51:07.832Z,56.65
2023-04-04T17:56:31.585Z,57.25
2023-04-04T18:08:14.505Z,60.10
2023-04-04T18:13:16.695Z,57.90
2023-04-04T18:18:10.438Z,59.67
2023-04-04T18:23:04.535Z,56.86
2023-04-04T18:28:14.967Z,60.21
2023-04-04T18:33:08.670Z,56.75
2023-04-04T18:38:11.088Z,60.83
2023-04-04T18:43:08.832Z,59.95
2023-04-04T18:48:04.791Z,62.71
2023-04-04T18:53:41.089Z,61.04
2023-04-04T18:58:43.225Z,64.44
2023-04-04T19:04:13.737Z,61.86
2023-04-04T19:09:08.697Z,61.12
2023-04-04T19:14:42.484Z,63.37
2023-04-04T19:19:36.607Z,62.78
2023-04-04T19:24:32.186Z,63.12
2023-04-04T19:29:32.897Z,64.89
2023-04-04T19:34:26.619Z,67.87
2023-04-04T19:39:21.402Z,64.46
2023-04-04T19:44:23.073Z,64.91
2023-04-04T19:49:19.400Z,68.19
2023-04-04T19:54:17.520Z,64.46
2023-04-04T20:07:04.299Z,72.02
2023-04-04T20:11:57.626Z,70.05
2023-04-04T20:22:55.662Z,71.70
2023-04-04T20:27:50.734Z,69.73
2023-04-04T20:32:46.696Z,69.78
2023-04-04T20:38:10.345Z,68.98
2023-04-04T20:43:21.329Z,69.61
2023-04-04T20:49:19.390Z,68.91
2023-04-04T20:54:14.372Z,72.43
2023-04-04T20:59:43.953Z,71.80
2023-04-04T21:04:41.100Z,69.85
2023-04-04T21:09:41.794Z,70.90
2023-04-04T21:14:40.936Z,73.56
2023-04-04T21:19:34.383Z,77.61
2023-04-04T21:24:37.179Z,75.87
2023-04-04T21:29:33.436Z,75.84
2023-04-04T21:34:39.039Z,76.06
2023-04-04T21:39:37.880Z,78.59
2023-04-04T21:44:36.295Z,76.94
2023-04-04T21:49:33.655Z,75.26
2023-04-04T21:54:27.195Z,76.91
2023-04-04T21:59:21.978Z,73.34
2023-04-04T22:04:16.789Z,74.67
2023-04-04T22:09:10.731Z,76.40
2023-04-04T22:14:24.996Z,76.48
2023-04-04T22:19:23.588Z,75.72
2023-04-04T22:24:18.979Z,73.30
2023-04-04T22:29:12.505Z,74.15
2023-04-04T22:34:14.641Z,76.50
2023-04-04T22:39:10.014Z,78.20
2023-04-04T22:44:05.098Z,73.02
2023-04-04T22:49:06.737Z,70.73
2023-04-04T22:54:08.858Z,76.03
2023-04-04T22:59:08.338Z,76.35
2023-04-04T23:04:02.146Z,75.81
2023-04-04T23:08:55.522Z,78.52
2023-04-04T23:13:49.205Z,75.02
2023-04-04T23:18:45.812Z,76.79
2023-04-04T23:23:39.740Z,76.37
2023-04-04T23:28:38.476Z,77.48
2023-04-04T23:33:32.220Z,72.40
2023-04-04T23:38:27.348Z,74.93
2023-04-04T23:43:20.878Z,75.09
2023-04-04T23:48:14.401Z,72.91
2023-04-04T23:53:08.188Z,76.12
2023-04-04T23:58:03.975Z,79.18
